Time;durP1;ratioP1;P1;durP2;ratioP2;P2;SDS_P1;SDS_P2;PMS_P1;PMS_P2;Temp;Humidity;BMP_temperature;BMP_pressure;BME280_temperature;BME280_humidity;BME280_pressure;Samples;Min_cycle;Max_cycle;Signal;HPM_P1;HPM_P2
2021/12/06 00:00:36;;;;;;;2.28;1.30;;;;;;;;;;5054275;28;20048;-67
2021/12/06 00:03:08;;;;;;;1.60;1.20;;;;;;;;;;5047528;28;20084;-70
2021/12/06 00:05:36;;;;;;;4.00;1.25;;;;;;;;;;5052075;28;20122;-67
2021/12/06 00:08:03;;;;;;;1.58;1.10;;;;;;;;;;5049447;28;20416;-72
2021/12/06 00:10:30;;;;;;;1.35;1.05;;;;;;;;;;5055751;28;20059;-73
2021/12/06 00:12:56;;;;;;;1.83;0.90;;;;;;;;;;5044233;28;20101;-69
2021/12/06 00:15:23;;;;;;;1.48;1.00;;;;;;;;;;5051216;28;20072;-68
2021/12/06 00:17:50;;;;;;;1.63;0.93;;;;;;;;;;5050948;28;20069;-75
2021/12/06 00:20:16;;;;;;;2.95;0.95;;;;;;;;;;5047828;28;20061;-74
2021/12/06 00:22:42;;;;;;;1.25;0.90;;;;;;;;;;5050637;28;20048;-71
2021/12/06 00:25:09;;;;;;;1.50;0.93;;;;;;;;;;5052965;28;20143;-72
2021/12/06 00:27:39;;;;;;;1.27;0.80;;;;;;;;;;5047410;28;20141;-69
2021/12/06 00:30:09;;;;;;;0.98;0.70;;;;;;;;;;5054487;28;20048;-70
2021/12/06 00:32:35;;;;;;;0.90;0.73;;;;;;;;;;5029765;28;20062;-73
2021/12/06 00:35:01;;;;;;;1.75;0.93;;;;;;;;;;5055313;28;20073;-70
2021/12/06 00:37:34;;;;;;;1.23;0.80;;;;;;;;;;5051136;28;20320;-71
2021/12/06 00:40:06;;;;;;;1.17;0.93;;;;;;;;;;5048699;28;20091;-70
2021/12/06 00:42:33;;;;;;;1.08;0.70;;;;;;;;;;5045098;28;20330;-76
2021/12/06 00:45:02;;;;;;;1.10;0.70;;;;;;;;;;5056141;28;20915;-74
2021/12/06 00:47:28;;;;;;;1.35;0.80;;;;;;;;;;5056106;28;20051;-72
2021/12/06 00:49:55;;;;;;;3.25;0.75;;;;;;;;;;5059827;28;20123;-68
2021/12/06 00:52:21;;;;;;;1.58;0.80;;;;;;;;;;5045713;28;20155;-73
2021/12/06 00:54:49;;;;;;;1.63;0.70;;;;;;;;;;5056512;28;20067;-74
2021/12/06 00:57:16;;;;;;;1.23;0.70;;;;;;;;;;5050148;28;20041;-72
2021/12/06 00:59:42;;;;;;;0.70;0.60;;;;;;;;;;5056082;28;20044;-71
2021/12/06 01:02:10;;;;;;;1.02;0.60;;;;;;;;;;5055356;28;20651;-76
2021/12/06 01:04:38;;;;;;;1.45;1.10;;;;;;;;;;5060113;28;20669;-70
2021/12/06 01:07:06;;;;;;;0.70;0.50;;;;;;;;;;5042231;28;20052;-68
2021/12/06 01:09:32;;;;;;;0.68;0.50;;;;;;;;;;5057904;28;20526;-67
2021/12/06 01:12:00;;;;;;;1.70;0.68;;;;;;;;;;5053046;28;20825;-66
2021/12/06 01:14:26;;;;;;;0.70;0.55;;;;;;;;;;5057888;28;20041;-72
2021/12/06 01:16:52;;;;;;;1.10;0.88;;;;;;;;;;5055255;28;20044;-74
2021/12/06 01:19:19;;;;;;;1.30;0.73;;;;;;;;;;5055779;28;20170;-70
2021/12/06 01:21:56;;;;;;;1.10;0.70;;;;;;;;;;5051930;28;20048;-72
2021/12/06 01:24:28;;;;;;;0.60;0.60;;;;;;;;;;5051628;28;20586;-70
2021/12/06 01:32:17;;;;;;;4.50;0.80;;;;;;;;;;5050989;28;20083;-74
2021/12/06 01:40:03;;;;;;;1.95;0.55;;;;;;;;;;5047673;28;21153;-66
2021/12/06 01:42:29;;;;;;;1.38;0.68;;;;;;;;;;5051201;28;20048;-71
2021/12/06 01:44:57;;;;;;;1.27;0.60;;;;;;;;;;5058416;28;20040;-71
2021/12/06 01:47:33;;;;;;;0.82;0.75;;;;;;;;;;5059142;28;20060;-71
2021/12/06 01:50:06;;;;;;;2.20;0.55;;;;;;;;;;5032929;28;20048;-73
2021/12/06 01:52:38;;;;;;;0.90;0.50;;;;;;;;;;5052410;28;20049;-72
2021/12/06 01:55:08;;;;;;;0.73;0.40;;;;;;;;;;5054559;28;20072;-66
2021/12/06 01:57:35;;;;;;;1.30;0.60;;;;;;;;;;5056640;28;20184;-68
2021/12/06 02:00:15;;;;;;;1.25;0.60;;;;;;;;;;5057739;28;20094;-68
2021/12/06 02:02:43;;;;;;;0.30;0.30;;;;;;;;;;5047643;28;20052;-70
2021/12/06 02:05:10;;;;;;;0.65;0.50;;;;;;;;;;5036374;28;20083;-67
2021/12/06 02:07:37;;;;;;;0.63;0.40;;;;;;;;;;5053865;28;20056;-68
2021/12/06 02:10:06;;;;;;;0.50;0.50;;;;;;;;;;5053090;28;20074;-67
2021/12/06 02:12:34;;;;;;;0.57;0.40;;;;;;;;;;5047844;28;20052;-68
2021/12/06 02:17:34;;;;;;;1.27;0.90;;;;;;;;;;5052072;28;20070;-73
2021/12/06 02:20:06;;;;;;;0.67;0.60;;;;;;;;;;5056749;28;20059;-66
2021/12/06 02:22:36;;;;;;;0.93;0.60;;;;;;;;;;5050757;28;20410;-70
2021/12/06 02:25:06;;;;;;;1.05;0.30;;;;;;;;;;5056486;28;20082;-66
2021/12/06 02:27:32;;;;;;;0.55;0.43;;;;;;;;;;5048662;28;20143;-71
2021/12/06 02:30:01;;;;;;;1.30;0.70;;;;;;;;;;5048156;28;20056;-66
2021/12/06 02:32:28;;;;;;;0.98;0.60;;;;;;;;;;5043509;28;20156;-67
2021/12/06 02:34:56;;;;;;;2.78;0.80;;;;;;;;;;5052085;28;20475;-74
2021/12/06 02:37:30;;;;;;;0.43;0.43;;;;;;;;;;5053247;28;20070;-71
2021/12/06 02:39:59;;;;;;;3.72;0.70;;;;;;;;;;5050819;28;20067;-66
2021/12/06 02:42:26;;;;;;;0.95;0.60;;;;;;;;;;5043984;28;20076;-69
2021/12/06 02:44:53;;;;;;;1.15;0.70;;;;;;;;;;5055083;28;20072;-70
2021/12/06 02:47:21;;;;;;;1.73;0.50;;;;;;;;;;5056538;28;20043;-66
2021/12/06 02:49:48;;;;;;;1.85;0.68;;;;;;;;;;5057184;28;20052;-67
2021/12/06 02:52:15;;;;;;;1.02;0.60;;;;;;;;;;5049698;28;20050;-68
2021/12/06 02:54:42;;;;;;;1.48;0.75;;;;;;;;;;5050676;28;20083;-71
2021/12/06 02:59:42;;;;;;;1.75;0.70;;;;;;;;;;5053735;28;20506;-72
2021/12/06 03:02:13;;;;;;;1.15;0.70;;;;;;;;;;5051007;28;20098;-73
2021/12/06 03:04:41;;;;;;;2.78;0.50;;;;;;;;;;5038130;28;20535;-69
2021/12/06 03:07:08;;;;;;;1.90;0.63;;;;;;;;;;5058474;28;20046;-67
2021/12/06 03:09:37;;;;;;;0.77;0.60;;;;;;;;;;5046877;28;20102;-68
2021/12/06 03:12:09;;;;;;;0.77;0.45;;;;;;;;;;5031130;28;20048;-71
2021/12/06 03:14:40;;;;;;;0.80;0.52;;;;;;;;;;5054486;28;21326;-66
2021/12/06 03:17:10;;;;;;;0.50;0.50;;;;;;;;;;5048128;28;20054;-73
2021/12/06 03:19:37;;;;;;;1.83;0.70;;;;;;;;;;5047423;28;20048;-67
2021/12/06 03:22:06;;;;;;;1.45;0.65;;;;;;;;;;5048298;28;20440;-70
2021/12/06 03:24:32;;;;;;;0.98;0.55;;;;;;;;;;5047649;28;20068;-68
2021/12/06 03:26:59;;;;;;;0.93;0.50;;;;;;;;;;5048526;28;20221;-68
2021/12/06 03:29:26;;;;;;;1.08;0.40;;;;;;;;;;5046259;28;20068;-67
2021/12/06 03:31:52;;;;;;;0.50;0.50;;;;;;;;;;5040947;28;20055;-66
2021/12/06 03:34:20;;;;;;;3.05;0.60;;;;;;;;;;5051702;28;20051;-70
2021/12/06 03:36:48;;;;;;;2.13;0.63;;;;;;;;;;5053192;28;20048;-71
2021/12/06 03:39:20;;;;;;;0.73;0.68;;;;;;;;;;5052870;28;20056;-71
2021/12/06 03:41:53;;;;;;;0.60;0.60;;;;;;;;;;5044137;28;20118;-69
2021/12/06 03:44:20;;;;;;;2.78;0.57;;;;;;;;;;5053195;28;20422;-66
2021/12/06 03:46:48;;;;;;;0.80;0.50;;;;;;;;;;5050666;28;20148;-72
2021/12/06 03:49:15;;;;;;;1.25;0.60;;;;;;;;;;5051943;28;20135;-72
2021/12/06 03:51:43;;;;;;;0.95;0.57;;;;;;;;;;5048549;28;20048;-71
2021/12/06 03:54:13;;;;;;;1.15;0.68;;;;;;;;;;5057471;28;20068;-67
2021/12/06 03:56:40;;;;;;;3.83;0.70;;;;;;;;;;5051427;28;20048;-69
2021/12/06 03:59:07;;;;;;;1.02;0.60;;;;;;;;;;5049232;28;20382;-69
2021/12/06 04:01:33;;;;;;;2.30;0.68;;;;;;;;;;5043649;28;20539;-71
2021/12/06 04:04:03;;;;;;;1.58;0.70;;;;;;;;;;5057508;28;20446;-66
2021/12/06 04:06:30;;;;;;;0.57;0.50;;;;;;;;;;5050481;28;20056;-69
2021/12/06 04:08:56;;;;;;;0.88;0.50;;;;;;;;;;5051940;28;20075;-67
2021/12/06 04:11:22;;;;;;;1.90;0.52;;;;;;;;;;5048286;28;20044;-73
2021/12/06 04:13:49;;;;;;;1.17;0.50;;;;;;;;;;5051128;28;20076;-70
2021/12/06 04:16:16;;;;;;;0.70;0.60;;;;;;;;;;5050461;28;20055;-69
2021/12/06 04:18:43;;;;;;;0.77;0.60;;;;;;;;;;5050165;28;20496;-69
2021/12/06 04:21:09;;;;;;;0.93;0.70;;;;;;;;;;5053400;28;20044;-70
2021/12/06 04:23:39;;;;;;;1.20;0.80;;;;;;;;;;5051635;28;20088;-69
2021/12/06 04:26:06;;;;;;;0.80;0.60;;;;;;;;;;5056771;28;20168;-67
2021/12/06 04:28:35;;;;;;;0.88;0.60;;;;;;;;;;5052155;28;20050;-72
2021/12/06 04:31:05;;;;;;;0.63;0.50;;;;;;;;;;5048732;28;20051;-69
2021/12/06 04:33:32;;;;;;;1.00;0.57;;;;;;;;;;5050284;28;20136;-69
2021/12/06 04:35:58;;;;;;;0.85;0.77;;;;;;;;;;5056151;28;20482;-68
2021/12/06 04:38:24;;;;;;;1.17;0.63;;;;;;;;;;5051846;28;20210;-70
2021/12/06 04:40:50;;;;;;;0.90;0.65;;;;;;;;;;5054362;28;20066;-74
2021/12/06 04:43:17;;;;;;;1.17;0.73;;;;;;;;;;5052935;28;20056;-71
2021/12/06 04:45:43;;;;;;;2.17;0.90;;;;;;;;;;5058412;28;20402;-73
2021/12/06 04:48:09;;;;;;;1.42;0.85;;;;;;;;;;5057720;28;20874;-68
2021/12/06 04:50:39;;;;;;;0.93;0.60;;;;;;;;;;5059908;28;20657;-68
2021/12/06 04:53:14;;;;;;;0.93;0.50;;;;;;;;;;5059014;28;20365;-66
2021/12/06 04:56:16;;;;;;;0.38;0.38;;;;;;;;;;5060741;28;20083;-69
2021/12/06 04:59:11;;;;;;;0.50;0.50;;;;;;;;;;5044999;28;20540;-71
2021/12/06 05:01:38;;;;;;;;;;;;;;;;;;5029950;28;20705;-70
2021/12/06 05:04:11;;;;;;;0.45;0.40;;;;;;;;;;5058784;28;19928;-70
2021/12/06 05:06:42;;;;;;;0.33;0.33;;;;;;;;;;5059158;28;20056;-66
2021/12/06 05:09:21;;;;;;;2.88;0.55;;;;;;;;;;5041349;28;20053;-72
2021/12/06 05:11:48;;;;;;;1.90;0.90;;;;;;;;;;5047692;28;20052;-74
2021/12/06 05:14:16;;;;;;;1.85;0.90;;;;;;;;;;5055350;28;20060;-68
2021/12/06 05:16:42;;;;;;;1.67;0.80;;;;;;;;;;5050687;28;20052;-69
2021/12/06 05:19:08;;;;;;;1.23;0.95;;;;;;;;;;5039995;28;20086;-71
2021/12/06 05:21:35;;;;;;;1.00;0.70;;;;;;;;;;5052515;28;20524;-71
2021/12/06 05:24:04;;;;;;;1.83;0.60;;;;;;;;;;5058250;28;20044;-74
2021/12/06 05:26:31;;;;;;;0.73;0.45;;;;;;;;;;5059189;28;20440;-70
2021/12/06 05:29:00;;;;;;;2.50;0.70;;;;;;;;;;5053190;28;20086;-70
2021/12/06 05:31:28;;;;;;;1.70;0.90;;;;;;;;;;5059197;28;20074;-74
2021/12/06 05:34:01;;;;;;;0.50;0.30;;;;;;;;;;5050295;28;20063;-66
2021/12/06 05:36:27;;;;;;;0.50;0.50;;;;;;;;;;5051294;28;20041;-69
2021/12/06 05:38:54;;;;;;;0.40;0.40;;;;;;;;;;5049280;28;20058;-71
2021/12/06 05:41:21;;;;;;;0.95;0.40;;;;;;;;;;5054330;28;20587;-70
2021/12/06 05:43:47;;;;;;;4.20;0.30;;;;;;;;;;5037857;28;20052;-69
2021/12/06 05:46:14;;;;;;;1.30;0.40;;;;;;;;;;5053838;28;20044;-73
2021/12/06 05:48:41;;;;;;;0.40;0.40;;;;;;;;;;5053253;28;20134;-73
2021/12/06 05:51:07;;;;;;;1.63;0.40;;;;;;;;;;5053794;28;20061;-67
2021/12/06 05:53:34;;;;;;;0.43;0.40;;;;;;;;;;5051338;28;20444;-67
2021/12/06 05:56:01;;;;;;;1.80;0.40;;;;;;;;;;5051813;28;20113;-69
2021/12/06 05:58:28;;;;;;;1.58;0.40;;;;;;;;;;5052077;28;20413;-72
2021/12/06 06:00:56;;;;;;;0.50;0.40;;;;;;;;;;5053107;28;20142;-66
2021/12/06 06:03:23;;;;;;;0.73;0.40;;;;;;;;;;5051431;28;20155;-68
2021/12/06 06:05:49;;;;;;;0.17;0.17;;;;;;;;;;5055263;28;20047;-73
2021/12/06 06:08:16;;;;;;;0.55;0.32;;;;;;;;;;5053983;28;20063;-75
2021/12/06 06:10:42;;;;;;;2.05;0.40;;;;;;;;;;5055398;28;21362;-69
2021/12/06 06:13:10;;;;;;;0.20;0.20;;;;;;;;;;5049219;28;20163;-75
2021/12/06 06:15:37;;;;;;;0.20;0.20;;;;;;;;;;5059336;28;20056;-68
2021/12/06 06:18:04;;;;;;;0.45;0.30;;;;;;;;;;5054266;28;20175;-67
2021/12/06 06:20:44;;;;;;;0.93;0.40;;;;;;;;;;5050383;28;20110;-70
2021/12/06 06:23:11;;;;;;;0.95;0.30;;;;;;;;;;5052642;28;20125;-74
2021/12/06 06:25:38;;;;;;;1.15;0.40;;;;;;;;;;5057428;28;20075;-66
2021/12/06 06:28:05;;;;;;;1.33;0.40;;;;;;;;;;5054111;28;20185;-67
2021/12/06 06:30:32;;;;;;;2.78;0.57;;;;;;;;;;5055721;28;20238;-68
2021/12/06 06:32:58;;;;;;;0.40;0.40;;;;;;;;;;5047879;28;20493;-69
2021/12/06 06:35:25;;;;;;;1.80;0.47;;;;;;;;;;5057778;28;20522;-68
2021/12/06 06:37:52;;;;;;;2.67;0.70;;;;;;;;;;5055653;28;20051;-70
2021/12/06 06:40:19;;;;;;;1.83;0.50;;;;;;;;;;5060649;28;20521;-75
2021/12/06 06:42:46;;;;;;;3.70;0.35;;;;;;;;;;5049880;28;20146;-70
2021/12/06 06:45:15;;;;;;;2.78;0.65;;;;;;;;;;5054743;28;20067;-71
2021/12/06 06:47:41;;;;;;;0.93;0.40;;;;;;;;;;5050874;28;20493;-72
2021/12/06 06:50:09;;;;;;;2.15;0.43;;;;;;;;;;5055205;28;20191;-75
2021/12/06 06:52:35;;;;;;;1.20;0.43;;;;;;;;;;5054722;28;20187;-68
2021/12/06 06:55:04;;;;;;;2.38;0.60;;;;;;;;;;5050525;28;20064;-71
2021/12/06 06:57:30;;;;;;;0.30;0.30;;;;;;;;;;5046272;28;20052;-74
2021/12/06 06:59:57;;;;;;;4.18;0.60;;;;;;;;;;5040425;28;20040;-74
2021/12/06 07:02:23;;;;;;;0.75;0.52;;;;;;;;;;5027165;28;20134;-67
2021/12/06 07:04:49;;;;;;;0.30;0.25;;;;;;;;;;5044832;28;20041;-73
2021/12/06 07:07:15;;;;;;;0.82;0.45;;;;;;;;;;5050222;28;20369;-74
2021/12/06 07:09:43;;;;;;;1.65;0.50;;;;;;;;;;5051286;28;20053;-72
2021/12/06 07:12:16;;;;;;;0.85;0.60;;;;;;;;;;5049155;28;20076;-71
2021/12/06 07:14:44;;;;;;;0.50;0.47;;;;;;;;;;5046470;28;20478;-69
2021/12/06 07:17:11;;;;;;;0.70;0.50;;;;;;;;;;5048821;28;20309;-74
2021/12/06 07:19:37;;;;;;;0.52;0.52;;;;;;;;;;5046734;28;20056;-68
2021/12/06 07:22:03;;;;;;;1.73;0.68;;;;;;;;;;5027455;28;20510;-68
2021/12/06 07:24:30;;;;;;;1.90;0.50;;;;;;;;;;5046133;28;20052;-70
2021/12/06 07:26:57;;;;;;;2.38;1.00;;;;;;;;;;5050431;28;20053;-72
2021/12/06 07:29:23;;;;;;;0.90;0.70;;;;;;;;;;5047639;28;20055;-71
2021/12/06 07:31:51;;;;;;;2.15;0.77;;;;;;;;;;5044604;28;20465;-74
2021/12/06 07:34:18;;;;;;;2.47;0.47;;;;;;;;;;5049715;28;20064;-76
2021/12/06 07:36:44;;;;;;;1.30;0.70;;;;;;;;;;5048409;28;20052;-70
2021/12/06 07:39:11;;;;;;;2.33;0.50;;;;;;;;;;5034965;28;20054;-74
2021/12/06 07:41:37;;;;;;;1.55;0.60;;;;;;;;;;5048034;28;20059;-73
2021/12/06 07:44:04;;;;;;;1.23;0.63;;;;;;;;;;5048679;28;20055;-73
2021/12/06 07:46:30;;;;;;;1.08;0.80;;;;;;;;;;5048868;28;20044;-70
2021/12/06 07:48:56;;;;;;;1.02;0.60;;;;;;;;;;5048914;28;20113;-75
2021/12/06 07:51:24;;;;;;;0.63;0.63;;;;;;;;;;5048303;28;20052;-71
2021/12/06 07:53:52;;;;;;;0.50;0.50;;;;;;;;;;5050884;28;20458;-75
2021/12/06 07:56:18;;;;;;;1.30;0.82;;;;;;;;;;5046515;28;21057;-77
2021/12/06 07:58:45;;;;;;;3.63;2.10;;;;;;;;;;5049391;28;20442;-72
2021/12/06 08:01:12;;;;;;;1.60;0.57;;;;;;;;;;5044833;28;20048;-74
2021/12/06 08:03:41;;;;;;;1.83;0.60;;;;;;;;;;5048287;28;20059;-76
2021/12/06 08:06:08;;;;;;;2.00;0.70;;;;;;;;;;5044837;28;20052;-73
2021/12/06 08:08:38;;;;;;;3.20;0.98;;;;;;;;;;5050872;28;20055;-69
2021/12/06 08:11:16;;;;;;;0.98;0.70;;;;;;;;;;5049945;28;20154;-72
2021/12/06 08:13:45;;;;;;;2.03;0.85;;;;;;;;;;5043916;28;20473;-74
2021/12/06 08:16:20;;;;;;;1.25;0.70;;;;;;;;;;5053184;28;20456;-75
2021/12/06 08:18:47;;;;;;;;;;;;;;;;;;5047931;28;20099;-71
2021/12/06 08:21:15;;;;;;;1.77;0.90;;;;;;;;;;5049153;28;20532;-77
2021/12/06 08:23:42;;;;;;;1.95;0.85;;;;;;;;;;5052236;28;20106;-76
2021/12/06 08:26:10;;;;;;;1.42;0.52;;;;;;;;;;5055544;28;20044;-72
2021/12/06 08:28:36;;;;;;;1.75;0.90;;;;;;;;;;5050977;28;20481;-76
2021/12/06 08:31:05;;;;;;;1.52;0.82;;;;;;;;;;5053997;28;20477;-71
2021/12/06 08:33:34;;;;;;;1.20;0.80;;;;;;;;;;5052015;28;20061;-73
2021/12/06 08:36:00;;;;;;;3.28;0.70;;;;;;;;;;5053832;28;20048;-70
2021/12/06 08:38:28;;;;;;;1.55;0.80;;;;;;;;;;5052925;28;20616;-73
2021/12/06 08:40:57;;;;;;;1.52;0.80;;;;;;;;;;5053977;28;20056;-70
2021/12/06 08:43:23;;;;;;;2.83;1.00;;;;;;;;;;5044314;28;20673;-77
2021/12/06 08:45:56;;;;;;;1.92;1.10;;;;;;;;;;5054422;28;20048;-72
2021/12/06 08:48:27;;;;;;;1.38;0.95;;;;;;;;;;5052404;28;20105;-71
2021/12/06 08:50:55;;;;;;;4.10;1.58;;;;;;;;;;5052337;28;20413;-69
2021/12/06 08:53:21;;;;;;;0.77;0.68;;;;;;;;;;5042942;28;20051;-78
2021/12/06 08:55:48;;;;;;;2.45;1.33;;;;;;;;;;5046434;28;20201;-68
2021/12/06 08:58:14;;;;;;;1.80;1.08;;;;;;;;;;5051132;28;20101;-71
2021/12/06 09:00:41;;;;;;;5.68;1.33;;;;;;;;;;5050245;28;20052;-71
2021/12/06 09:03:07;;;;;;;1.85;0.80;;;;;;;;;;5054430;28;20061;-67
2021/12/06 09:05:37;;;;;;;4.35;1.60;;;;;;;;;;5060117;28;20056;-74
2021/12/06 09:08:04;;;;;;;1.45;0.80;;;;;;;;;;5057026;28;20056;-75
2021/12/06 09:10:30;;;;;;;3.15;1.33;;;;;;;;;;5054740;28;20044;-71
2021/12/06 09:12:57;;;;;;;2.40;0.85;;;;;;;;;;5056735;28;20044;-71
2021/12/06 09:15:23;;;;;;;1.50;0.70;;;;;;;;;;5055609;28;20143;-76
2021/12/06 09:17:52;;;;;;;3.85;0.90;;;;;;;;;;5057817;28;20059;-79
2021/12/06 09:20:26;;;;;;;2.90;0.82;;;;;;;;;;5060321;28;21060;-74
2021/12/06 09:22:53;;;;;;;2.28;0.77;;;;;;;;;;5060824;28;20139;-68
2021/12/06 09:25:20;;;;;;;2.05;1.02;;;;;;;;;;5060513;28;20738;-74
2021/12/06 09:27:46;;;;;;;0.82;0.60;;;;;;;;;;5061655;28;20044;-76
2021/12/06 09:30:17;;;;;;;3.22;1.05;;;;;;;;;;5066796;28;20056;-70
2021/12/06 09:32:43;;;;;;;3.58;1.70;;;;;;;;;;5064804;28;20339;-78
2021/12/06 09:35:13;;;;;;;2.95;0.90;;;;;;;;;;5069599;28;20158;-72
2021/12/06 09:37:40;;;;;;;4.32;1.08;;;;;;;;;;5063502;28;20191;-75
2021/12/06 09:40:08;;;;;;;1.85;1.10;;;;;;;;;;5061887;28;20458;-71
2021/12/06 09:42:36;;;;;;;2.78;1.20;;;;;;;;;;5064858;28;20059;-75
2021/12/06 09:45:07;;;;;;;3.47;1.13;;;;;;;;;;5058442;28;20492;-74
2021/12/06 09:47:34;;;;;;;1.08;0.80;;;;;;;;;;5065046;28;20063;-76
2021/12/06 09:50:01;;;;;;;4.60;1.10;;;;;;;;;;5063516;28;20056;-74
2021/12/06 09:52:26;;;;;;;2.13;0.90;;;;;;;;;;5060204;28;20060;-69
2021/12/06 09:54:53;;;;;;;5.90;1.02;;;;;;;;;;5065082;28;20049;-70
2021/12/06 09:57:19;;;;;;;7.85;1.10;;;;;;;;;;5060059;28;20048;-75
2021/12/06 09:59:45;;;;;;;2.80;0.90;;;;;;;;;;5058948;28;20072;-70
2021/12/06 10:02:15;;;;;;;2.05;0.88;;;;;;;;;;5060359;28;20075;-73
2021/12/06 10:04:47;;;;;;;2.78;0.80;;;;;;;;;;5063609;28;20167;-75
2021/12/06 10:07:14;;;;;;;2.67;1.20;;;;;;;;;;5055695;28;20052;-81
2021/12/06 10:09:42;;;;;;;2.10;1.00;;;;;;;;;;5040015;28;20340;-71
2021/12/06 10:12:10;;;;;;;2.10;0.90;;;;;;;;;;5056608;28;22040;-74
2021/12/06 10:14:37;;;;;;;3.13;0.80;;;;;;;;;;5057072;28;20126;-72
2021/12/06 10:17:05;;;;;;;3.83;1.00;;;;;;;;;;5069313;28;20447;-68
2021/12/06 10:19:32;;;;;;;2.90;1.27;;;;;;;;;;5069617;28;20049;-72
2021/12/06 10:21:59;;;;;;;2.50;1.00;;;;;;;;;;5061005;28;20064;-72
2021/12/06 10:24:28;;;;;;;3.05;1.10;;;;;;;;;;5064797;28;20596;-71
2021/12/06 10:27:13;;;;;;;2.60;1.13;;;;;;;;;;5062142;28;20067;-69
2021/12/06 10:29:46;;;;;;;1.30;0.93;;;;;;;;;;5068731;28;20375;-71
2021/12/06 10:32:19;;;;;;;4.00;1.00;;;;;;;;;;5066063;28;20136;-74
2021/12/06 10:34:50;;;;;;;1.00;0.80;;;;;;;;;;5063266;28;20147;-74
2021/12/06 10:37:35;;;;;;;1.08;0.88;;;;;;;;;;5056353;28;20488;-74
2021/12/06 10:40:07;;;;;;;1.77;0.80;;;;;;;;;;5053110;28;21062;-73
2021/12/06 10:42:37;;;;;;;2.22;1.10;;;;;;;;;;5053827;28;20056;-72
2021/12/06 10:45:17;;;;;;;1.08;0.88;;;;;;;;;;5058933;28;20070;-74
2021/12/06 10:47:44;;;;;;;3.28;0.95;;;;;;;;;;5060569;28;20361;-76
2021/12/06 10:50:17;;;;;;;2.03;0.70;;;;;;;;;;5064284;28;20489;-69
2021/12/06 10:52:55;;;;;;;0.63;0.63;;;;;;;;;;5056735;28;20052;-77
2021/12/06 10:55:27;;;;;;;2.30;1.40;;;;;;;;;;5053657;28;20060;-79
2021/12/06 10:58:00;;;;;;;2.40;1.10;;;;;;;;;;5052528;28;20059;-76
2021/12/06 11:00:51;;;;;;;1.60;1.10;;;;;;;;;;5055201;28;20654;-70
2021/12/06 11:03:33;;;;;;;4.22;1.65;;;;;;;;;;5051699;28;20064;-71
2021/12/06 11:06:09;;;;;;;2.95;1.40;;;;;;;;;;5054849;28;20105;-72
2021/12/06 11:08:39;;;;;;;3.35;1.20;;;;;;;;;;5055584;28;20056;-72
2021/12/06 11:11:09;;;;;;;5.30;1.10;;;;;;;;;;5053725;28;20501;-70
2021/12/06 11:13:42;;;;;;;3.40;1.20;;;;;;;;;;5048316;28;20040;-74
2021/12/06 11:16:25;;;;;;;4.43;0.70;;;;;;;;;;5052677;28;20765;-79
2021/12/06 11:18:57;;;;;;;2.47;1.05;;;;;;;;;;5057362;28;20048;-74
2021/12/06 11:21:39;;;;;;;1.63;1.00;;;;;;;;;;5052362;28;20494;-77
2021/12/06 11:24:18;;;;;;;4.15;1.02;;;;;;;;;;5053371;28;20467;-70
2021/12/06 11:27:17;;;;;;;3.08;1.40;;;;;;;;;;5054162;28;20048;-70
2021/12/06 11:29:44;;;;;;;3.17;1.25;;;;;;;;;;5055747;28;20048;-72
2021/12/06 11:32:14;;;;;;;2.85;0.90;;;;;;;;;;5047797;28;20148;-75
2021/12/06 11:34:54;;;;;;;3.72;1.10;;;;;;;;;;5059733;28;20136;-73
2021/12/06 11:37:31;;;;;;;3.80;0.90;;;;;;;;;;5062060;28;20135;-76
2021/12/06 11:40:15;;;;;;;5.60;1.10;;;;;;;;;;5061306;28;20117;-73
2021/12/06 11:43:00;;;;;;;1.80;1.00;;;;;;;;;;5060526;28;20063;-72
2021/12/06 11:45:35;;;;;;;;;;;;;;;;;;5064277;28;20151;-70
2021/12/06 11:48:10;;;;;;;1.17;0.90;;;;;;;;;;5065680;28;19928;-74
2021/12/06 11:50:43;;;;;;;1.73;1.10;;;;;;;;;;5057386;28;20142;-69
2021/12/06 11:53:10;;;;;;;1.42;0.98;;;;;;;;;;5049025;28;20513;-70
2021/12/06 11:55:45;;;;;;;1.92;0.80;;;;;;;;;;5055134;28;20060;-69
2021/12/06 11:58:51;;;;;;;1.75;0.75;;;;;;;;;;5057207;28;20428;-74
2021/12/06 12:01:28;;;;;;;0.82;0.80;;;;;;;;;;4999488;28;20048;-76
2021/12/06 12:04:06;;;;;;;1.75;1.08;;;;;;;;;;5053996;28;20084;-71
2021/12/06 12:06:39;;;;;;;2.55;0.95;;;;;;;;;;5058626;28;20068;-69
2021/12/06 12:09:11;;;;;;;0.93;0.73;;;;;;;;;;5051946;28;20081;-70
2021/12/06 12:12:12;;;;;;;1.52;0.70;;;;;;;;;;5031703;28;20697;-70
2021/12/06 12:14:44;;;;;;;1.00;0.90;;;;;;;;;;5050805;28;20064;-73
2021/12/06 12:17:32;;;;;;;2.03;0.90;;;;;;;;;;5060030;28;20048;-73
2021/12/06 12:20:00;;;;;;;1.27;0.93;;;;;;;;;;5060501;28;20509;-73
2021/12/06 12:22:27;;;;;;;1.73;0.90;;;;;;;;;;5055285;28;20052;-75
2021/12/06 12:24:58;;;;;;;1.67;1.05;;;;;;;;;;5059906;28;20041;-74
2021/12/06 12:27:40;;;;;;;1.90;0.98;;;;;;;;;;5059197;28;20683;-73
2021/12/06 12:30:06;;;;;;;1.35;0.70;;;;;;;;;;5053726;28;22118;-72
2021/12/06 12:32:33;;;;;;;1.65;0.80;;;;;;;;;;5054510;28;20083;-72
2021/12/06 12:35:04;;;;;;;1.17;0.70;;;;;;;;;;5053984;28;20560;-73
2021/12/06 12:37:33;;;;;;;3.17;0.90;;;;;;;;;;5051615;28;20059;-72
2021/12/06 12:40:14;;;;;;;2.53;1.10;;;;;;;;;;5046854;28;20060;-73
2021/12/06 12:42:54;;;;;;;1.85;0.90;;;;;;;;;;5056301;28;20198;-74
2021/12/06 12:45:22;;;;;;;0.73;0.63;;;;;;;;;;5052919;28;20091;-75
2021/12/06 12:47:55;;;;;;;1.63;0.95;;;;;;;;;;5036021;28;20434;-73
2021/12/06 12:50:21;;;;;;;2.75;1.23;;;;;;;;;;5055852;28;20090;-73
2021/12/06 12:52:59;;;;;;;2.25;0.80;;;;;;;;;;5054548;28;20052;-72
2021/12/06 12:55:31;;;;;;;1.48;0.70;;;;;;;;;;5035357;28;20949;-69
2021/12/06 12:58:22;;;;;;;1.25;0.80;;;;;;;;;;5052833;28;20064;-74
2021/12/06 13:00:59;;;;;;;2.28;0.70;;;;;;;;;;5051626;28;20155;-69
2021/12/06 13:03:28;;;;;;;3.60;0.60;;;;;;;;;;5040007;28;20068;-73
2021/12/06 13:06:13;;;;;;;3.03;0.50;;;;;;;;;;5055304;28;20048;-78
2021/12/06 13:08:39;;;;;;;;;;;;;;;;;;5059362;28;20148;-77
2021/12/06 13:11:05;;;;;;;1.25;0.73;;;;;;;;;;5059358;28;19923;-75
2021/12/06 13:13:43;;;;;;;0.47;0.40;;;;;;;;;;5056634;28;20041;-71
2021/12/06 13:16:34;;;;;;;1.30;0.90;;;;;;;;;;5053968;28;20052;-76
2021/12/06 13:19:15;;;;;;;0.90;0.70;;;;;;;;;;5054928;28;20115;-75
2021/12/06 13:21:56;;;;;;;1.85;0.70;;;;;;;;;;5055011;28;20171;-74
2021/12/06 13:24:21;;;;;;;4.72;0.77;;;;;;;;;;5053133;28;20062;-74
2021/12/06 13:27:20;;;;;;;2.00;1.00;;;;;;;;;;5058864;28;20052;-73
2021/12/06 13:30:09;;;;;;;5.53;1.70;;;;;;;;;;5053124;28;20458;-74
2021/12/06 13:32:41;;;;;;;3.47;1.65;;;;;;;;;;5049804;28;20065;-68
2021/12/06 13:35:22;;;;;;;2.80;1.80;;;;;;;;;;5041183;28;20303;-72
2021/12/06 13:38:05;;;;;;;2.78;1.73;;;;;;;;;;5060539;28;20066;-67
2021/12/06 13:40:34;;;;;;;2.75;1.27;;;;;;;;;;5061297;28;20053;-75
2021/12/06 13:43:12;;;;;;;3.50;2.10;;;;;;;;;;5055523;28;20393;-74
2021/12/06 13:45:43;;;;;;;2.63;1.50;;;;;;;;;;5058977;28;20505;-79
2021/12/06 13:48:25;;;;;;;5.93;1.52;;;;;;;;;;5061081;28;20049;-80
2021/12/06 13:50:53;;;;;;;4.32;1.20;;;;;;;;;;5059132;28;20447;-75
2021/12/06 13:53:34;;;;;;;2.50;1.15;;;;;;;;;;5048666;28;20147;-76
2021/12/06 13:56:08;;;;;;;1.73;0.90;;;;;;;;;;5055986;28;20055;-75
2021/12/06 13:58:35;;;;;;;1.55;1.00;;;;;;;;;;5058834;28;20058;-77
2021/12/06 14:01:05;;;;;;;2.15;1.13;;;;;;;;;;5058437;28;20063;-78
2021/12/06 14:03:39;;;;;;;3.13;1.05;;;;;;;;;;5054376;28;20045;-70
2021/12/06 14:06:11;;;;;;;3.40;2.03;;;;;;;;;;5065541;28;20055;-73
2021/12/06 14:08:46;;;;;;;3.95;2.30;;;;;;;;;;5060237;28;20072;-82
2021/12/06 14:11:26;;;;;;;3.00;1.38;;;;;;;;;;5057351;28;20050;-72
2021/12/06 14:13:52;;;;;;;3.00;1.10;;;;;;;;;;5057564;28;20536;-77
2021/12/06 14:16:20;;;;;;;2.03;1.33;;;;;;;;;;5063332;28;20047;-77
2021/12/06 14:18:45;;;;;;;1.23;0.90;;;;;;;;;;5062108;28;20452;-76
2021/12/06 14:21:12;;;;;;;1.75;1.05;;;;;;;;;;5061488;28;20162;-74
2021/12/06 14:23:38;;;;;;;0.95;0.80;;;;;;;;;;5052939;28;21196;-70
2021/12/06 14:26:05;;;;;;;1.98;0.90;;;;;;;;;;5050298;28;20148;-70
2021/12/06 14:28:37;;;;;;;1.55;1.00;;;;;;;;;;5052854;28;20052;-71
2021/12/06 14:31:06;;;;;;;2.13;0.90;;;;;;;;;;5057609;28;20052;-73
2021/12/06 14:33:35;;;;;;;2.60;0.80;;;;;;;;;;5042719;28;20846;-72
2021/12/06 14:36:05;;;;;;;2.42;0.95;;;;;;;;;;5047617;28;20048;-70
2021/12/06 14:38:33;;;;;;;1.50;0.90;;;;;;;;;;5050023;28;20597;-73
2021/12/06 14:41:06;;;;;;;5.93;0.95;;;;;;;;;;5051210;28;20059;-69
2021/12/06 14:43:33;;;;;;;1.00;0.70;;;;;;;;;;5048868;28;20070;-68
2021/12/06 14:46:01;;;;;;;1.58;1.00;;;;;;;;;;5051137;28;20059;-71
2021/12/06 14:48:27;;;;;;;1.77;0.95;;;;;;;;;;5051300;28;20854;-69
2021/12/06 14:53:28;;;;;;;1.23;0.80;;;;;;;;;;5045338;28;20964;-69
2021/12/06 14:55:58;;;;;;;2.38;0.90;;;;;;;;;;5048529;28;20104;-74
2021/12/06 14:58:34;;;;;;;1.95;0.73;;;;;;;;;;5033131;28;20103;-71
2021/12/06 15:01:09;;;;;;;2.78;0.90;;;;;;;;;;5048191;28;20048;-72
2021/12/06 15:03:40;;;;;;;0.85;0.60;;;;;;;;;;5047913;28;20072;-68
2021/12/06 15:06:07;;;;;;;1.02;0.80;;;;;;;;;;5045620;28;20048;-65
2021/12/06 15:08:43;;;;;;;1.20;0.80;;;;;;;;;;5052284;28;20053;-69
2021/12/06 15:11:14;;;;;;;4.97;0.73;;;;;;;;;;5049419;28;20198;-75
2021/12/06 15:13:43;;;;;;;1.63;0.93;;;;;;;;;;5049529;28;20052;-71
2021/12/06 15:16:13;;;;;;;2.00;0.70;;;;;;;;;;5031538;28;20655;-73
2021/12/06 15:18:40;;;;;;;1.15;0.60;;;;;;;;;;5049662;28;20113;-73